createdAt,value
2018-10-03T00:00:45.448Z,22.50
2018-10-03T00:01:45.508Z,29.40
2018-10-03T00:02:45.408Z,33.20
2018-10-03T00:03:45.386Z,27.50
2018-10-03T00:04:45.378Z,26.50
2018-10-03T00:05:45.349Z,27.20
2018-10-03T00:06:45.324Z,25.90
2018-10-03T00:07:45.357Z,27.00
2018-10-03T00:08:45.284Z,30.20
2018-10-03T00:09:45.263Z,28.30
2018-10-03T00:10:45.243Z,25.70
2018-10-03T00:11:45.229Z,29.40
2018-10-03T00:12:45.200Z,28.30
2018-10-03T00:13:45.187Z,23.00
2018-10-03T00:14:45.160Z,33.60
2018-10-03T00:15:45.140Z,31.40
2018-10-03T00:16:45.119Z,25.30
2018-10-03T00:17:45.098Z,29.70
2018-10-03T00:18:45.078Z,31.00
2018-10-03T00:19:45.056Z,26.00
2018-10-03T00:20:45.040Z,28.70
2018-10-03T00:21:45.029Z,21.60
2018-10-03T00:22:45.004Z,25.20
2018-10-03T00:23:44.975Z,21.30
2018-10-03T00:24:44.954Z,22.10
2018-10-03T00:25:44.935Z,24.50
2018-10-03T00:26:44.915Z,28.30
2018-10-03T00:27:44.900Z,26.20
2018-10-03T00:28:44.871Z,30.00
2018-10-03T00:29:44.848Z,29.80
2018-10-03T00:30:44.834Z,36.10
2018-10-03T00:31:44.814Z,26.80
2018-10-03T00:32:44.787Z,24.50
2018-10-03T00:33:44.778Z,23.40
2018-10-03T00:34:44.749Z,26.50
2018-10-03T00:35:44.730Z,24.40
2018-10-03T00:36:44.732Z,26.40
2018-10-03T00:37:44.834Z,26.60
2018-10-03T00:38:44.669Z,24.60
2018-10-03T00:39:44.650Z,34.50
2018-10-03T00:40:44.633Z,29.10
2018-10-03T00:41:44.601Z,30.80
2018-10-03T00:42:44.578Z,30.60
2018-10-03T00:43:44.557Z,21.90
2018-10-03T00:44:44.537Z,26.30
2018-10-03T00:45:44.518Z,25.40
2018-10-03T00:46:44.498Z,25.10
2018-10-03T00:47:44.477Z,27.90
2018-10-03T00:48:44.456Z,28.30
2018-10-03T00:49:44.438Z,27.90
2018-10-03T00:50:44.422Z,27.00
2018-10-03T00:51:44.397Z,26.00
2018-10-03T00:52:44.371Z,23.40
2018-10-03T00:53:44.352Z,29.00
2018-10-03T00:54:44.332Z,25.30
2018-10-03T00:55:44.310Z,28.50
2018-10-03T00:56:44.290Z,24.10
2018-10-03T00:57:44.274Z,30.30
2018-10-03T00:58:44.254Z,26.40
2018-10-03T00:59:44.229Z,24.90
2018-10-03T01:00:44.206Z,29.90
2018-10-03T01:01:44.195Z,21.20
2018-10-03T01:02:44.175Z,27.30
2018-10-03T01:03:44.144Z,27.20
2018-10-03T01:04:44.126Z,23.50
2018-10-03T01:05:44.103Z,23.00
2018-10-03T01:06:44.088Z,28.40
2018-10-03T01:07:44.063Z,24.30
2018-10-03T01:08:44.045Z,27.30
2018-10-03T01:09:44.039Z,26.40
2018-10-03T01:10:44.145Z,20.40
2018-10-03T01:11:43.981Z,23.90
2018-10-03T01:12:43.961Z,25.00
2018-10-03T01:13:43.939Z,25.70
2018-10-03T01:14:43.927Z,23.50
2018-10-03T01:15:43.897Z,27.30
2018-10-03T01:16:43.881Z,18.70
2018-10-03T01:17:43.860Z,21.70
2018-10-03T01:18:43.848Z,20.30
2018-10-03T01:19:43.817Z,22.00
2018-10-03T01:20:43.805Z,20.80
2018-10-03T01:21:43.778Z,18.40
2018-10-03T01:22:43.759Z,21.10
2018-10-03T01:23:43.735Z,21.60
2018-10-03T01:24:43.720Z,23.00
2018-10-03T01:25:43.696Z,26.60
2018-10-03T01:26:43.677Z,27.40
2018-10-03T01:27:43.660Z,21.70
2018-10-03T01:28:43.638Z,28.70
2018-10-03T01:29:43.614Z,21.20
2018-10-03T01:30:43.593Z,22.30
2018-10-03T01:31:43.573Z,26.80
2018-10-03T01:32:43.561Z,24.10
2018-10-03T01:33:43.532Z,32.70
2018-10-03T01:34:43.515Z,22.10
2018-10-03T01:35:43.590Z,21.90
2018-10-03T01:36:43.473Z,27.20
2018-10-03T01:37:43.453Z,25.80
2018-10-03T01:38:43.437Z,25.90
2018-10-03T01:39:43.413Z,20.90
2018-10-03T01:40:43.408Z,23.70
2018-10-03T01:41:43.378Z,26.80
2018-10-03T01:42:43.353Z,30.50
2018-10-03T01:43:43.332Z,25.60
2018-10-03T01:44:43.307Z,19.80
2018-10-03T01:45:43.295Z,22.40
2018-10-03T01:46:43.273Z,31.90
2018-10-03T01:47:43.247Z,24.50
2018-10-03T01:48:43.228Z,29.00
2018-10-03T01:49:43.207Z,24.60
2018-10-03T01:50:43.192Z,27.90
2018-10-03T01:51:43.177Z,23.60
2018-10-03T01:52:43.145Z,20.10
2018-10-03T01:53:43.130Z,25.60
2018-10-03T01:54:43.104Z,28.40
2018-10-03T01:55:43.084Z,26.80
2018-10-03T01:56:43.064Z,27.20
2018-10-03T01:57:43.043Z,22.20
2018-10-03T01:58:43.024Z,22.80
2018-10-03T01:59:43.004Z,27.30
2018-10-03T02:00:42.989Z,23.20
2018-10-03T02:01:42.973Z,26.80
2018-10-03T02:02:42.943Z,22.40
2018-10-03T02:03:42.922Z,26.50
2018-10-03T02:04:42.901Z,27.50
2018-10-03T02:05:42.880Z,22.90
2018-10-03T02:06:42.868Z,25.70
2018-10-03T02:07:42.840Z,29.00
2018-10-03T02:08:42.821Z,29.00
2018-10-03T02:09:42.808Z,22.50
2018-10-03T02:10:42.778Z,26.70
2018-10-03T02:11:42.760Z,26.50
2018-10-03T02:12:42.741Z,32.50
2018-10-03T02:13:42.720Z,27.20
2018-10-03T02:14:42.767Z,25.40
2018-10-03T02:15:42.678Z,31.00
2018-10-03T02:16:42.658Z,29.50
2018-10-03T02:17:42.656Z,20.40
2018-10-03T02:18:42.617Z,26.80
2018-10-03T02:19:42.605Z,24.80
2018-10-03T02:20:42.576Z,19.60
2018-10-03T02:21:42.560Z,25.80
2018-10-03T02:22:42.544Z,27.60
2018-10-03T02:23:42.529Z,29.30
2018-10-03T02:24:42.495Z,25.50
2018-10-03T02:25:42.478Z,28.50
2018-10-03T02:26:42.455Z,26.40
2018-10-03T02:27:42.433Z,28.60
2018-10-03T02:28:42.423Z,27.90
2018-10-03T02:29:42.394Z,27.50
2018-10-03T02:30:42.371Z,31.90
2018-10-03T02:31:42.356Z,25.40
2018-10-03T02:32:42.400Z,19.60
2018-10-03T02:33:42.315Z,27.40
2018-10-03T02:34:42.295Z,25.70
2018-10-03T02:35:42.275Z,27.80
2018-10-03T02:36:42.254Z,25.50
2018-10-03T02:37:42.245Z,25.40
2018-10-03T02:38:42.283Z,27.30
2018-10-03T02:39:42.201Z,30.60
2018-10-03T02:40:42.172Z,30.30
2018-10-03T02:41:42.149Z,24.90
2018-10-03T02:42:42.137Z,30.40
2018-10-03T02:43:42.109Z,29.40
2018-10-03T02:44:42.091Z,29.70
2018-10-03T02:45:42.079Z,33.10
2018-10-03T02:46:42.048Z,28.30
2018-10-03T02:47:42.027Z,23.80
2018-10-03T02:48:42.013Z,23.10
2018-10-03T02:49:41.987Z,26.50
2018-10-03T02:50:41.968Z,22.80
2018-10-03T02:51:41.945Z,29.10
2018-10-03T02:52:41.927Z,23.10
2018-10-03T02:53:41.908Z,25.10
2018-10-03T02:54:41.898Z,31.90
2018-10-03T02:55:41.906Z,24.50
2018-10-03T02:56:41.848Z,30.70
2018-10-03T02:57:41.824Z,25.90
2018-10-03T02:58:41.813Z,25.80
2018-10-03T02:59:41.788Z,31.30
2018-10-03T03:00:41.770Z,26.60
2018-10-03T03:01:41.771Z,29.70
2018-10-03T03:02:41.727Z,26.90
2018-10-03T03:03:41.711Z,26.70
2018-10-03T03:04:41.683Z,28.40
2018-10-03T03:05:41.669Z,30.10
2018-10-03T03:06:41.642Z,34.10
2018-10-03T03:07:41.622Z,26.40
2018-10-03T03:08:41.707Z,25.40
2018-10-03T03:09:41.582Z,29.70
2018-10-03T03:10:41.563Z,26.30
2018-10-03T03:11:41.538Z,26.30
2018-10-03T03:12:41.521Z,21.60
2018-10-03T03:13:41.498Z,26.60
2018-10-03T03:14:41.487Z,21.80
2018-10-03T03:15:41.456Z,26.60
2018-10-03T03:16:41.482Z,24.20
2018-10-03T03:17:41.426Z,26.70
2018-10-03T03:18:41.399Z,29.50
2018-10-03T03:19:41.376Z,25.50
2018-10-03T03:20:41.360Z,27.10
2018-10-03T03:21:41.339Z,29.60
2018-10-03T03:22:41.325Z,32.20
2018-10-03T03:23:41.295Z,34.20
2018-10-03T03:24:41.293Z,26.80
2018-10-03T03:25:41.254Z,23.90
2018-10-03T03:26:41.235Z,29.00
2018-10-03T03:27:41.214Z,29.70
2018-10-03T03:28:41.195Z,27.80
2018-10-03T03:29:41.174Z,21.80
2018-10-03T03:30:41.163Z,29.50
2018-10-03T03:31:41.140Z,32.40
2018-10-03T03:32:41.113Z,27.10
2018-10-03T03:33:41.162Z,24.30
2018-10-03T03:34:41.074Z,25.80
2018-10-03T03:35:41.056Z,24.70
2018-10-03T03:36:41.035Z,24.60
2018-10-03T03:37:41.019Z,30.70
2018-10-03T03:38:40.994Z,22.00
2018-10-03T03:39:40.970Z,25.60
2018-10-03T03:40:40.954Z,27.90
2018-10-03T03:41:40.930Z,29.00
2018-10-03T03:42:40.914Z,25.60
2018-10-03T03:43:40.895Z,29.20
2018-10-03T03:44:40.870Z,22.40
2018-10-03T03:45:40.850Z,20.00
2018-10-03T03:46:40.830Z,23.10
2018-10-03T03:47:40.810Z,30.10
2018-10-03T03:48:40.793Z,28.30
2018-10-03T03:49:40.782Z,26.00
2018-10-03T03:50:40.747Z,26.10
2018-10-03T03:51:40.737Z,26.00
2018-10-03T03:52:40.708Z,27.20
2018-10-03T03:53:40.687Z,27.40
2018-10-03T03:54:40.670Z,25.30
2018-10-03T03:55:40.672Z,32.00
2018-10-03T03:56:40.627Z,26.70
2018-10-03T03:57:40.606Z,32.20
2018-10-03T03:58:40.588Z,20.40
2018-10-03T03:59:40.564Z,28.40
2018-10-03T04:00:40.544Z,26.20
2018-10-03T04:01:40.526Z,29.60
2018-10-03T04:02:40.506Z,31.00
2018-10-03T04:03:40.487Z,26.70
2018-10-03T04:04:40.464Z,25.80
2018-10-03T04:05:40.445Z,29.60
2018-10-03T04:06:40.426Z,34.60
2018-10-03T04:07:40.418Z,21.30
2018-10-03T04:08:40.385Z,27.80
2018-10-03T04:09:40.363Z,23.50
2018-10-03T04:10:40.343Z,27.10
2018-10-03T04:11:40.322Z,30.00
2018-10-03T04:12:40.303Z,24.50
2018-10-03T04:13:40.286Z,31.20
2018-10-03T04:14:40.265Z,31.30
2018-10-03T04:15:40.244Z,28.20
2018-10-03T04:16:40.223Z,22.30
2018-10-03T04:17:40.205Z,35.60
2018-10-03T04:18:40.181Z,33.70
2018-10-03T04:19:40.343Z,34.00
2018-10-03T04:20:40.139Z,30.80
2018-10-03T04:21:40.119Z,35.30
2018-10-03T04:22:40.102Z,22.20
2018-10-03T04:23:40.083Z,29.90
2018-10-03T04:24:40.061Z,30.30
2018-10-03T04:25:40.049Z,33.10
2018-10-03T04:26:40.020Z,30.40
2018-10-03T04:27:39.999Z,21.90
2018-10-03T04:28:39.989Z,23.90
2018-10-03T04:29:39.960Z,29.60
2018-10-03T04:30:39.947Z,25.80
2018-10-03T04:31:39.918Z,22.50
2018-10-03T04:32:39.899Z,26.10
2018-10-03T04:33:39.882Z,30.00
2018-10-03T04:34:39.859Z,33.50
2018-10-03T04:35:39.890Z,31.60
2018-10-03T04:36:39.819Z,32.70
2018-10-03T04:37:39.831Z,28.00
2018-10-03T04:38:39.776Z,29.60
2018-10-03T04:39:39.758Z,29.90
2018-10-03T04:40:39.739Z,28.80
2018-10-03T04:41:39.833Z,25.20
2018-10-03T04:42:39.702Z,27.10
2018-10-03T04:43:39.676Z,31.10
2018-10-03T04:44:39.705Z,23.30
2018-10-03T04:45:39.640Z,27.70
2018-10-03T04:46:39.614Z,21.70
2018-10-03T04:47:39.592Z,29.10
2018-10-03T04:48:39.573Z,28.10
2018-10-03T04:49:39.552Z,27.20
2018-10-03T04:50:39.532Z,26.20
2018-10-03T04:51:39.516Z,22.30
2018-10-03T04:52:39.492Z,27.60
2018-10-03T04:53:39.485Z,25.50
2018-10-03T04:54:39.451Z,30.00
2018-10-03T04:55:39.433Z,24.50
2018-10-03T04:56:39.414Z,30.10
2018-10-03T04:57:39.391Z,27.80
2018-10-03T04:58:39.374Z,24.20
2018-10-03T04:59:39.351Z,30.10
2018-10-03T05:00:39.328Z,28.80
2018-10-03T05:01:39.310Z,23.80
2018-10-03T05:02:39.289Z,34.70
2018-10-03T05:03:39.266Z,29.20
2018-10-03T05:04:39.247Z,28.90
2018-10-03T05:05:39.226Z,26.30
2018-10-03T05:06:39.207Z,30.60
2018-10-03T05:07:39.192Z,27.40
2018-10-03T05:08:39.177Z,34.40
2018-10-03T05:09:39.147Z,32.00
2018-10-03T05:10:39.126Z,28.20
2018-10-03T05:11:39.151Z,28.70
2018-10-03T05:12:39.084Z,29.50
2018-10-03T05:13:39.067Z,28.90
2018-10-03T05:14:39.045Z,29.20
2018-10-03T05:15:39.021Z,30.20
2018-10-03T05:16:39.001Z,27.30
2018-10-03T05:17:38.987Z,23.10
2018-10-03T05:18:38.961Z,29.90
2018-10-03T05:19:38.942Z,25.30
2018-10-03T05:20:38.919Z,35.10
2018-10-03T05:21:38.899Z,25.70
2018-10-03T05:22:38.887Z,23.00
2018-10-03T05:23:38.865Z,25.40
2018-10-03T05:24:38.835Z,27.40
2018-10-03T05:25:38.817Z,26.10
2018-10-03T05:26:38.795Z,24.80
2018-10-03T05:27:38.795Z,25.10
2018-10-03T05:28:38.755Z,34.10
2018-10-03T05:29:38.734Z,31.10
2018-10-03T05:30:38.867Z,30.10
2018-10-03T05:31:38.694Z,27.90
2018-10-03T05:32:38.672Z,25.80
2018-10-03T05:33:38.708Z,27.50
2018-10-03T05:34:38.647Z,28.50
2018-10-03T05:35:38.617Z,27.60
2018-10-03T05:36:38.589Z,21.60
2018-10-03T05:37:38.574Z,26.90
2018-10-03T05:38:38.558Z,29.30
2018-10-03T05:39:38.595Z,26.00
2018-10-03T05:40:38.507Z,29.00
2018-10-03T05:41:38.488Z,26.10
2018-10-03T05:42:38.469Z,26.20
2018-10-03T05:43:38.448Z,23.50
2018-10-03T05:44:38.427Z,26.00
2018-10-03T05:45:38.405Z,28.30
2018-10-03T05:46:38.383Z,29.00
2018-10-03T05:47:38.363Z,27.20
2018-10-03T05:48:38.388Z,27.10
2018-10-03T05:49:38.323Z,27.10
2018-10-03T05:50:38.302Z,27.30
2018-10-03T05:51:38.281Z,24.60
2018-10-03T05:52:38.260Z,32.70
2018-10-03T05:53:38.240Z,31.00
2018-10-03T05:54:38.313Z,21.20
2018-10-03T05:55:38.199Z,23.80
2018-10-03T05:56:38.189Z,25.70
2018-10-03T05:57:38.169Z,26.70
2018-10-03T05:58:38.148Z,29.50
2018-10-03T05:59:38.118Z,27.60
2018-10-03T06:00:38.137Z,24.20
2018-10-03T06:01:38.079Z,29.40
2018-10-03T06:02:38.081Z,26.60
2018-10-03T06:03:38.113Z,26.60
2018-10-03T06:04:38.015Z,26.60
2018-10-03T06:05:37.995Z,24.10
2018-10-03T06:06:37.975Z,29.20
2018-10-03T06:07:37.955Z,26.60
2018-10-03T06:08:37.939Z,28.60
2018-10-03T06:09:37.912Z,25.90
2018-10-03T06:10:37.891Z,26.40
2018-10-03T06:11:37.870Z,25.70
2018-10-03T06:12:37.854Z,23.50
2018-10-03T06:13:37.836Z,27.50
2018-10-03T06:14:37.822Z,27.10
2018-10-03T06:15:37.789Z,33.70
2018-10-03T06:16:37.770Z,23.10
2018-10-03T06:17:37.752Z,31.10
2018-10-03T06:18:37.790Z,26.00
2018-10-03T06:19:37.925Z,27.90
2018-10-03T06:20:37.687Z,25.00
2018-10-03T06:21:37.671Z,26.10
2018-10-03T06:22:37.761Z,32.30
2018-10-03T06:23:37.636Z,25.00
2018-10-03T06:24:37.613Z,31.30
2018-10-03T06:25:37.591Z,31.80
2018-10-03T06:26:37.571Z,27.90
2018-10-03T06:27:37.554Z,29.20
2018-10-03T06:28:37.525Z,31.70
2018-10-03T06:29:37.514Z,28.00
2018-10-03T06:30:37.490Z,25.90
2018-10-03T06:31:37.465Z,27.00
2018-10-03T06:32:37.460Z,22.40
2018-10-03T06:33:37.545Z,27.50
2018-10-03T06:34:37.405Z,23.40
2018-10-03T06:35:37.391Z,25.90
2018-10-03T06:36:37.380Z,23.20
2018-10-03T06:37:37.356Z,24.50
2018-10-03T06:38:37.323Z,25.70
2018-10-03T06:39:37.305Z,23.90
2018-10-03T06:40:37.283Z,26.50
2018-10-03T06:41:37.272Z,23.40
2018-10-03T06:42:37.258Z,22.90
2018-10-03T06:43:37.228Z,26.60
2018-10-03T06:44:37.203Z,26.90
2018-10-03T06:45:37.224Z,35.50
2018-10-03T06:46:37.172Z,27.40
2018-10-03T06:47:37.157Z,28.30
2018-10-03T06:48:37.138Z,29.50
2018-10-03T06:49:37.108Z,30.40
2018-10-03T06:50:37.098Z,29.20
2018-10-03T06:51:37.068Z,27.70
2018-10-03T06:52:37.138Z,25.50
2018-10-03T06:53:37.023Z,24.70
2018-10-03T06:54:37.004Z,31.90
2018-10-03T06:55:36.983Z,22.80
2018-10-03T06:56:36.963Z,24.10
2018-10-03T06:57:36.944Z,35.30
2018-10-03T06:58:36.924Z,23.30
2018-10-03T06:59:36.905Z,24.10
2018-10-03T07:00:36.886Z,23.20
2018-10-03T07:01:36.872Z,27.70
2018-10-03T07:02:36.881Z,26.40
2018-10-03T07:03:36.835Z,21.20
2018-10-03T07:04:36.822Z,20.20
2018-10-03T07:05:36.798Z,23.40
2018-10-03T07:06:36.767Z,28.80
2018-10-03T07:07:36.750Z,26.70
2018-10-03T07:08:36.733Z,22.60
2018-10-03T07:09:36.708Z,22.40
2018-10-03T07:10:36.693Z,19.60
2018-10-03T07:11:36.670Z,23.00
2018-10-03T07:12:36.660Z,21.00
2018-10-03T07:13:36.629Z,23.90
2018-10-03T07:14:36.621Z,26.90
2018-10-03T07:15:36.602Z,23.30
2018-10-03T07:16:36.575Z,30.20
2018-10-03T07:17:36.554Z,26.60
2018-10-03T07:18:36.537Z,27.00
2018-10-03T07:19:36.516Z,27.70
2018-10-03T07:20:36.497Z,32.50
2018-10-03T07:21:36.483Z,31.10
2018-10-03T07:22:36.537Z,20.30
2018-10-03T07:23:36.441Z,28.10
2018-10-03T07:24:36.419Z,24.10
2018-10-03T07:25:36.400Z,26.80
2018-10-03T07:26:36.394Z,26.90
2018-10-03T07:27:36.361Z,21.80
2018-10-03T07:28:36.345Z,25.40
2018-10-03T07:29:36.325Z,29.00
2018-10-03T07:30:36.304Z,30.20
2018-10-03T07:31:36.285Z,21.00
2018-10-03T07:32:36.299Z,24.50
2018-10-03T07:33:36.248Z,20.60
2018-10-03T07:34:36.228Z,19.30
2018-10-03T07:35:36.208Z,20.90
2018-10-03T07:36:36.194Z,23.30
2018-10-03T07:37:36.174Z,23.50
2018-10-03T07:38:36.154Z,20.40
2018-10-03T07:39:36.134Z,24.40
2018-10-03T07:40:36.117Z,20.10
2018-10-03T07:41:36.103Z,28.80
2018-10-03T07:42:36.077Z,22.00
2018-10-03T07:43:36.066Z,26.70
2018-10-03T07:44:36.073Z,25.90
2018-10-03T07:45:36.020Z,18.60
2018-10-03T07:46:36.006Z,21.10
2018-10-03T07:47:36.017Z,25.90
2018-10-03T07:48:35.966Z,28.00
2018-10-03T07:49:35.948Z,24.90
2018-10-03T07:50:35.935Z,24.60
2018-10-03T07:51:35.923Z,21.00
2018-10-03T07:52:35.904Z,24.50
2018-10-03T07:53:35.946Z,21.20
2018-10-03T07:54:35.871Z,23.60
2018-10-03T07:55:35.838Z,20.20
2018-10-03T07:56:35.826Z,27.20
2018-10-03T07:57:35.801Z,20.20
2018-10-03T07:58:35.783Z,23.00
2018-10-03T07:59:35.776Z,17.40
2018-10-03T08:00:35.752Z,23.70
2018-10-03T08:01:35.728Z,17.90
2018-10-03T08:02:35.711Z,22.30
2018-10-03T08:03:35.700Z,22.40
2018-10-03T08:04:35.691Z,23.90
2018-10-03T08:05:35.657Z,23.00
2018-10-03T08:06:35.639Z,24.30
2018-10-03T08:07:35.623Z,22.50
2018-10-03T08:08:35.610Z,29.20
2018-10-03T08:09:35.587Z,33.00
2018-10-03T08:10:35.576Z,24.60
2018-10-03T08:11:35.551Z,21.80
2018-10-03T08:12:35.533Z,21.50
2018-10-03T08:13:35.520Z,21.60
2018-10-03T08:14:35.496Z,24.00
2018-10-03T08:15:35.485Z,22.60
2018-10-03T08:16:35.461Z,25.30
2018-10-03T08:17:35.444Z,19.00
2018-10-03T08:18:35.428Z,24.30
2018-10-03T08:19:35.407Z,25.40
2018-10-03T08:20:35.396Z,19.50
2018-10-03T08:21:35.376Z,19.30
2018-10-03T08:22:35.374Z,23.50
2018-10-03T08:23:35.344Z,23.30
2018-10-03T08:24:35.391Z,23.40
2018-10-03T08:25:35.308Z,27.20
2018-10-03T08:26:35.288Z,24.10
2018-10-03T08:27:35.273Z,18.00
2018-10-03T08:28:35.251Z,23.10
2018-10-03T08:29:35.234Z,19.30
2018-10-03T08:30:35.222Z,21.10
2018-10-03T08:31:35.209Z,22.20
2018-10-03T08:32:35.325Z,22.90
2018-10-03T08:33:35.215Z,21.10
2018-10-03T08:34:35.149Z,24.50
2018-10-03T08:35:35.141Z,25.50
2018-10-03T08:36:35.164Z,32.70
2018-10-03T08:37:35.106Z,25.70
2018-10-03T08:38:35.116Z,21.00
2018-10-03T08:39:35.062Z,26.10
2018-10-03T08:40:35.056Z,28.10
2018-10-03T08:41:35.040Z,18.50
2018-10-03T08:42:35.013Z,19.40
2018-10-03T08:43:35.008Z,23.50
2018-10-03T08:44:34.983Z,22.10
2018-10-03T08:45:34.987Z,20.60
2018-10-03T08:46:34.942Z,23.60
2018-10-03T08:47:34.926Z,24.10
2018-10-03T08:48:34.917Z,19.70
2018-10-03T08:49:34.926Z,23.70
2018-10-03T08:50:34.877Z,20.50
2018-10-03T08:51:34.856Z,23.40
2018-10-03T08:52:34.892Z,21.50
2018-10-03T08:53:34.834Z,18.20
2018-10-03T08:54:34.823Z,19.50
2018-10-03T08:55:34.791Z,22.20
2018-10-03T08:56:34.785Z,25.90
2018-10-03T08:57:34.756Z,19.40
2018-10-03T08:58:34.956Z,14.80
2018-10-03T08:59:34.723Z,25.20
2018-10-03T09:00:34.715Z,22.50
2018-10-03T09:01:34.690Z,16.60
2018-10-03T09:02:34.675Z,16.70
2018-10-03T09:03:34.661Z,13.70
2018-10-03T09:04:34.640Z,17.00
2018-10-03T09:05:34.638Z,21.10
2018-10-03T09:06:34.611Z,18.20
2018-10-03T09:07:34.600Z,17.90
2018-10-03T09:08:34.579Z,20.10
2018-10-03T09:09:34.562Z,20.80
2018-10-03T09:10:34.553Z,14.50
2018-10-03T09:11:34.591Z,19.80
2018-10-03T09:12:34.513Z,17.20
2018-10-03T09:13:34.505Z,12.80
2018-10-03T09:14:34.489Z,19.10
2018-10-03T09:15:34.471Z,18.80
2018-10-03T09:16:34.450Z,19.80
2018-10-03T09:17:34.434Z,16.70
2018-10-03T09:18:34.426Z,18.90
2018-10-03T09:19:34.407Z,18.30
2018-10-03T09:20:34.398Z,22.30
2018-10-03T09:21:34.384Z,12.40
2018-10-03T09:22:34.373Z,20.20
2018-10-03T09:23:34.345Z,19.00
2018-10-03T09:24:34.328Z,15.10
2018-10-03T09:25:34.313Z,13.80
2018-10-03T09:26:34.306Z,17.00
2018-10-03T09:27:34.299Z,18.60
2018-10-03T09:28:34.283Z,18.40
2018-10-03T09:29:34.257Z,20.90
2018-10-03T09:30:34.239Z,17.20
2018-10-03T09:31:34.230Z,15.10
2018-10-03T09:32:34.217Z,19.30
2018-10-03T09:33:34.214Z,20.90
2018-10-03T09:34:34.180Z,18.90
2018-10-03T09:35:34.264Z,24.10
2018-10-03T09:36:34.148Z,19.20
2018-10-03T09:37:34.142Z,17.10
2018-10-03T09:38:34.137Z,18.40
2018-10-03T09:39:34.131Z,16.40
2018-10-03T09:40:34.098Z,17.50
2018-10-03T09:41:34.077Z,16.70
2018-10-03T09:42:34.068Z,19.70
2018-10-03T09:43:34.046Z,19.00
2018-10-03T09:44:34.114Z,17.70
2018-10-03T09:45:34.025Z,15.00
2018-10-03T09:46:34.004Z,12.30
2018-10-03T09:47:33.989Z,11.50
2018-10-03T09:48:33.982Z,16.90
2018-10-03T09:49:33.961Z,18.90
2018-10-03T09:50:33.955Z,12.40
2018-10-03T09:51:33.933Z,17.20
2018-10-03T09:52:33.923Z,15.30
2018-10-03T09:53:33.916Z,15.70
2018-10-03T09:54:33.897Z,13.50
2018-10-03T09:55:33.887Z,16.30
2018-10-03T09:56:33.869Z,16.80
2018-10-03T09:57:33.859Z,18.10
2018-10-03T09:58:33.858Z,20.90
2018-10-03T09:59:33.955Z,17.20
2018-10-03T10:00:33.907Z,9.60
2018-10-03T10:01:33.816Z,15.40
2018-10-03T10:02:33.800Z,14.40
2018-10-03T10:03:33.793Z,16.00
2018-10-03T10:04:33.770Z,13.00
2018-10-03T10:05:33.772Z,18.80
2018-10-03T10:06:33.748Z,14.50
2018-10-03T10:07:33.743Z,13.60
2018-10-03T10:08:33.734Z,15.60
2018-10-03T10:09:33.726Z,14.20
2018-10-03T10:10:33.705Z,17.10
2018-10-03T10:11:33.856Z,14.30
2018-10-03T10:12:33.704Z,15.70
2018-10-03T10:13:33.671Z,14.80
2018-10-03T10:14:33.657Z,13.40
2018-10-03T10:15:33.646Z,14.90
2018-10-03T10:16:33.634Z,13.80
2018-10-03T10:17:33.631Z,14.90
2018-10-03T10:18:33.617Z,18.90
2018-10-03T10:19:33.610Z,16.60
2018-10-03T10:20:33.601Z,14.30
2018-10-03T10:21:33.585Z,14.20
2018-10-03T10:22:33.568Z,15.40
2018-10-03T10:23:33.558Z,12.80
2018-10-03T10:24:33.563Z,12.90
2018-10-03T10:25:33.539Z,10.90
2018-10-03T10:26:33.532Z,12.70
2018-10-03T10:27:33.513Z,17.00
2018-10-03T10:28:33.520Z,12.50
2018-10-03T10:29:33.492Z,11.60
2018-10-03T10:30:33.495Z,14.10
2018-10-03T10:31:34.477Z,14.30
2018-10-03T10:32:33.522Z,11.70
2018-10-03T10:33:33.444Z,10.90
2018-10-03T10:34:33.497Z,14.30
2018-10-03T10:35:33.433Z,12.80
2018-10-03T10:39:10.735Z,15.80
2018-10-03T10:40:10.751Z,14.80
2018-10-03T10:41:10.737Z,16.50
2018-10-03T10:42:10.693Z,12.90
2018-10-03T10:43:10.712Z,14.70
2018-10-03T10:44:10.678Z,11.40
2018-10-03T10:45:10.677Z,11.40
2018-10-03T10:46:10.660Z,12.30
2018-10-03T10:47:12.066Z,13.00
2018-10-03T10:48:10.642Z,12.50
2018-10-03T10:49:10.620Z,14.70
2018-10-03T10:50:10.627Z,13.70
2018-10-03T10:51:10.614Z,13.30
2018-10-03T10:52:10.587Z,14.10
2018-10-03T10:53:10.659Z,13.40
2018-10-03T10:54:10.567Z,10.80
2018-10-03T10:55:57.408Z,14.10
2018-10-03T10:56:54.772Z,15.40
2018-10-03T10:57:54.771Z,14.80
2018-10-03T10:58:54.756Z,10.10
2018-10-03T10:59:54.749Z,12.00
2018-10-03T11:00:54.737Z,10.80
2018-10-03T11:01:54.729Z,11.40
2018-10-03T11:02:54.719Z,11.20
2018-10-03T11:03:54.702Z,11.30
2018-10-03T11:07:08.116Z,11.80
2018-10-03T11:08:08.120Z,12.30
2018-10-03T11:09:08.122Z,13.80
2018-10-03T11:10:08.142Z,16.60
2018-10-03T11:11:08.072Z,15.40
2018-10-03T11:12:08.073Z,16.30
2018-10-03T11:13:08.051Z,13.40
2018-10-03T11:14:08.037Z,15.80
2018-10-03T11:15:08.028Z,20.10
2018-10-03T11:16:08.018Z,16.60
2018-10-03T11:17:08.027Z,11.90
2018-10-03T11:18:07.994Z,15.50
2018-10-03T11:19:08.004Z,16.50
2018-10-03T11:20:07.972Z,12.60
2018-10-03T11:21:07.973Z,12.20
2018-10-03T11:22:07.964Z,12.80
2018-10-03T11:23:07.971Z,13.60
2018-10-03T11:24:07.946Z,17.20
2018-10-03T11:25:07.917Z,12.80
2018-10-03T11:26:07.917Z,16.40
2018-10-03T11:27:07.887Z,14.70
2018-10-03T11:28:07.883Z,13.50
2018-10-03T11:29:56.804Z,12.00
2018-10-03T11:30:56.803Z,15.60
2018-10-03T11:31:56.816Z,11.20
2018-10-03T11:34:00.977Z,15.40
2018-10-03T11:35:00.980Z,16.40
2018-10-03T11:36:00.955Z,15.40
2018-10-03T11:37:00.946Z,16.40
2018-10-03T11:38:00.937Z,15.30
2018-10-03T11:39:00.922Z,15.20
2018-10-03T11:40:00.896Z,13.10
2018-10-03T11:41:00.896Z,14.00
2018-10-03T11:42:00.871Z,9.60
2018-10-03T11:43:00.862Z,17.00
2018-10-03T11:44:00.948Z,14.70
2018-10-03T11:45:00.838Z,12.20
2018-10-03T11:46:00.828Z,14.30
2018-10-03T11:47:00.818Z,14.90
2018-10-03T11:48:00.796Z,21.60
2018-10-03T11:49:00.790Z,14.90
2018-10-03T11:50:00.780Z,13.30
2018-10-03T11:51:00.768Z,12.30
2018-10-03T11:52:00.749Z,12.50
2018-10-03T11:53:00.747Z,9.90
2018-10-03T11:54:00.729Z,13.50
2018-10-03T11:55:00.734Z,13.20
2018-10-03T11:56:00.717Z,14.60
2018-10-03T11:57:00.753Z,14.10
2018-10-03T11:58:00.669Z,11.10
2018-10-03T11:59:00.660Z,10.70
2018-10-03T12:00:00.648Z,12.10
2018-10-03T12:01:00.631Z,9.60
2018-10-03T12:02:00.625Z,9.80
2018-10-03T12:03:00.739Z,13.20
2018-10-03T12:04:00.593Z,14.20
2018-10-03T12:05:00.586Z,18.80
2018-10-03T12:06:00.579Z,15.30
2018-10-03T12:07:00.602Z,11.80
2018-10-03T12:08:00.544Z,11.70
2018-10-03T12:09:00.534Z,11.20
2018-10-03T12:10:00.523Z,11.90
2018-10-03T12:11:00.496Z,11.60
2018-10-03T12:12:00.492Z,10.60
2018-10-03T12:13:00.479Z,11.90
2018-10-03T12:14:00.464Z,12.30
2018-10-03T12:15:00.447Z,9.90
2018-10-03T12:16:00.424Z,13.00
2018-10-03T12:17:00.417Z,14.00
2018-10-03T12:18:00.400Z,11.30
2018-10-03T12:19:00.390Z,13.70
2018-10-03T12:20:00.369Z,11.60
2018-10-03T12:21:00.375Z,11.10
2018-10-03T12:22:00.341Z,11.10
2018-10-03T12:23:00.330Z,13.40
2018-10-03T12:24:00.320Z,12.30
2018-10-03T12:25:00.304Z,13.70
2018-10-03T12:26:00.287Z,13.60
2018-10-03T12:27:00.272Z,10.10
2018-10-03T12:28:00.275Z,12.90
2018-10-03T12:29:00.239Z,15.70
2018-10-03T12:30:00.227Z,11.70
2018-10-03T12:31:00.265Z,11.60
2018-10-03T12:32:00.195Z,10.00
2018-10-03T12:33:00.180Z,9.10
2018-10-03T12:34:00.169Z,12.00
2018-10-03T12:35:00.156Z,13.00
2018-10-03T12:36:00.151Z,12.20
2018-10-03T12:37:00.121Z,10.10
2018-10-03T12:38:00.111Z,11.20
2018-10-03T12:39:00.094Z,11.80
2018-10-03T12:40:00.081Z,10.30
2018-10-03T12:41:00.064Z,9.70
2018-10-03T12:42:00.058Z,9.50
2018-10-03T12:43:00.039Z,17.60
2018-10-03T12:44:00.026Z,13.20
2018-10-03T12:45:00.110Z,17.00
2018-10-03T12:45:59.996Z,9.20
2018-10-03T12:46:59.982Z,12.00
2018-10-03T12:47:59.967Z,9.70
2018-10-03T12:48:59.944Z,9.20
2018-10-03T12:49:59.937Z,13.00
2018-10-03T12:50:59.951Z,10.90
2018-10-03T12:51:59.906Z,16.00
2018-10-03T12:52:59.882Z,16.80
2018-10-03T12:53:59.878Z,11.10
2018-10-03T12:54:59.859Z,10.20
2018-10-03T12:55:59.845Z,10.90
2018-10-03T12:56:59.843Z,13.00
2018-10-03T12:57:59.815Z,8.80
2018-10-03T12:58:59.796Z,16.00
2018-10-03T12:59:59.788Z,8.50
2018-10-03T13:00:59.772Z,13.30